sensor_id;sensor_type;location;lat;lon;timestamp;temperature;humidity
1760;DHT22;877;46.266;20.062;2023-07-22T00:00:00;20.30;100.00
1760;DHT22;877;46.266;20.062;2023-07-22T00:02:26;20.20;100.00
1760;DHT22;877;46.266;20.062;2023-07-22T00:04:52;20.10;100.00
1760;DHT22;877;46.266;20.062;2023-07-22T00:07:18;19.90;100.00
1760;DHT22;877;46.266;20.062;2023-07-22T00:09:44;20.00;100.00
1760;DHT22;877;46.266;20.062;2023-07-22T00:12:10;20.20;100.00
1760;DHT22;877;46.266;20.062;2023-07-22T00:14:40;20.00;100.00
1760;DHT22;877;46.266;20.062;2023-07-22T00:17:07;19.80;100.00
1760;DHT22;877;46.266;20.062;2023-07-22T00:19:33;19.90;100.00
1760;DHT22;877;46.266;20.062;2023-07-22T00:21:59;19.80;100.00
1760;DHT22;877;46.266;20.062;2023-07-22T00:24:25;20.00;100.00
1760;DHT22;877;46.266;20.062;2023-07-22T00:26:51;19.90;100.00
1760;DHT22;877;46.266;20.062;2023-07-22T00:29:17;20.00;100.00
1760;DHT22;877;46.266;20.062;2023-07-22T00:31:43;19.90;100.00
1760;DHT22;877;46.266;20.062;2023-07-22T00:34:09;19.80;100.00
1760;DHT22;877;46.266;20.062;2023-07-22T00:36:35;20.00;100.00
1760;DHT22;877;46.266;20.062;2023-07-22T00:39:01;19.90;100.00
1760;DHT22;877;46.266;20.062;2023-07-22T00:41:27;20.00;100.00
1760;DHT22;877;46.266;20.062;2023-07-22T00:43:54;19.90;100.00
1760;DHT22;877;46.266;20.062;2023-07-22T00:46:21;20.00;100.00
1760;DHT22;877;46.266;20.062;2023-07-22T00:48:48;19.80;100.00
1760;DHT22;877;46.266;20.062;2023-07-22T00:51:14;19.70;100.00
1760;DHT22;877;46.266;20.062;2023-07-22T00:53:40;19.70;100.00
1760;DHT22;877;46.266;20.062;2023-07-22T00:56:06;19.70;100.00
1760;DHT22;877;46.266;20.062;2023-07-22T00:58:33;19.70;100.00
1760;DHT22;877;46.266;20.062;2023-07-22T01:00:59;19.70;100.00
1760;DHT22;877;46.266;20.062;2023-07-22T01:03:25;19.70;100.00
1760;DHT22;877;46.266;20.062;2023-07-22T01:05:51;19.50;100.00
1760;DHT22;877;46.266;20.062;2023-07-22T01:08:19;19.50;100.00
1760;DHT22;877;46.266;20.062;2023-07-22T01:10:45;19.50;100.00
1760;DHT22;877;46.266;20.062;2023-07-22T01:13:10;19.30;100.00
1760;DHT22;877;46.266;20.062;2023-07-22T01:15:37;19.40;100.00
1760;DHT22;877;46.266;20.062;2023-07-22T01:18:04;19.30;100.00
1760;DHT22;877;46.266;20.062;2023-07-22T01:20:30;19.40;100.00
1760;DHT22;877;46.266;20.062;2023-07-22T01:22:56;19.40;100.00
1760;DHT22;877;46.266;20.062;2023-07-22T01:25:22;19.40;100.00
1760;DHT22;877;46.266;20.062;2023-07-22T01:27:52;19.40;100.00
1760;DHT22;877;46.266;20.062;2023-07-22T01:30:18;19.30;100.00
1760;DHT22;877;46.266;20.062;2023-07-22T01:32:45;19.40;100.00
1760;DHT22;877;46.266;20.062;2023-07-22T01:35:11;19.30;100.00
1760;DHT22;877;46.266;20.062;2023-07-22T01:37:37;19.20;100.00
1760;DHT22;877;46.266;20.062;2023-07-22T01:40:03;19.20;100.00
1760;DHT22;877;46.266;20.062;2023-07-22T01:42:41;19.20;100.00
1760;DHT22;877;46.266;20.062;2023-07-22T01:45:08;19.30;100.00
1760;DHT22;877;46.266;20.062;2023-07-22T01:47:38;19.20;100.00
1760;DHT22;877;46.266;20.062;2023-07-22T01:50:04;19.20;100.00
1760;DHT22;877;46.266;20.062;2023-07-22T01:52:32;19.10;100.00
1760;DHT22;877;46.266;20.062;2023-07-22T01:54:58;19.00;100.00
1760;DHT22;877;46.266;20.062;2023-07-22T01:57:24;19.10;100.00
1760;DHT22;877;46.266;20.062;2023-07-22T01:59:50;19.00;100.00
1760;DHT22;877;46.266;20.062;2023-07-22T02:02:16;19.00;100.00
1760;DHT22;877;46.266;20.062;2023-07-22T02:04:41;19.00;100.00
1760;DHT22;877;46.266;20.062;2023-07-22T02:07:07;19.00;100.00
1760;DHT22;877;46.266;20.062;2023-07-22T02:09:33;18.90;100.00
1760;DHT22;877;46.266;20.062;2023-07-22T02:11:59;18.70;100.00
1760;DHT22;877;46.266;20.062;2023-07-22T02:14:25;18.70;100.00
1760;DHT22;877;46.266;20.062;2023-07-22T02:16:51;18.60;100.00
1760;DHT22;877;46.266;20.062;2023-07-22T02:19:17;18.60;100.00
1760;DHT22;877;46.266;20.062;2023-07-22T02:21:42;18.70;100.00
1760;DHT22;877;46.266;20.062;2023-07-22T02:24:09;18.60;100.00
1760;DHT22;877;46.266;20.062;2023-07-22T02:26:35;18.70;100.00
1760;DHT22;877;46.266;20.062;2023-07-22T02:29:02;18.60;100.00
1760;DHT22;877;46.266;20.062;2023-07-22T02:31:28;18.40;100.00
1760;DHT22;877;46.266;20.062;2023-07-22T02:33:53;18.60;100.00
1760;DHT22;877;46.266;20.062;2023-07-22T02:36:19;18.50;100.00
1760;DHT22;877;46.266;20.062;2023-07-22T02:38:45;18.40;100.00
1760;DHT22;877;46.266;20.062;2023-07-22T02:41:11;18.30;100.00
1760;DHT22;877;46.266;20.062;2023-07-22T02:43:37;18.50;100.00
1760;DHT22;877;46.266;20.062;2023-07-22T02:46:04;18.50;100.00
1760;DHT22;877;46.266;20.062;2023-07-22T02:48:31;18.50;100.00
1760;DHT22;877;46.266;20.062;2023-07-22T02:51:08;18.50;100.00
1760;DHT22;877;46.266;20.062;2023-07-22T02:53:35;18.40;100.00
1760;DHT22;877;46.266;20.062;2023-07-22T02:56:04;18.50;100.00
1760;DHT22;877;46.266;20.062;2023-07-22T02:58:32;18.50;100.00
1760;DHT22;877;46.266;20.062;2023-07-22T03:00:59;18.40;100.00
1760;DHT22;877;46.266;20.062;2023-07-22T03:03:25;18.60;100.00
1760;DHT22;877;46.266;20.062;2023-07-22T03:05:51;18.60;100.00
1760;DHT22;877;46.266;20.062;2023-07-22T03:08:18;18.50;100.00
1760;DHT22;877;46.266;20.062;2023-07-22T03:10:44;18.50;100.00
1760;DHT22;877;46.266;20.062;2023-07-22T03:13:17;18.40;100.00
1760;DHT22;877;46.266;20.062;2023-07-22T03:15:43;18.20;100.00
1760;DHT22;877;46.266;20.062;2023-07-22T03:18:09;18.40;100.00
1760;DHT22;877;46.266;20.062;2023-07-22T03:20:36;18.40;100.00
1760;DHT22;877;46.266;20.062;2023-07-22T03:23:04;18.40;100.00
1760;DHT22;877;46.266;20.062;2023-07-22T03:25:31;18.60;100.00
1760;DHT22;877;46.266;20.062;2023-07-22T03:27:58;18.40;100.00
1760;DHT22;877;46.266;20.062;2023-07-22T03:30:25;18.30;100.00
1760;DHT22;877;46.266;20.062;2023-07-22T03:32:51;18.20;100.00
1760;DHT22;877;46.266;20.062;2023-07-22T03:35:17;18.10;100.00
1760;DHT22;877;46.266;20.062;2023-07-22T03:37:43;18.00;100.00
1760;DHT22;877;46.266;20.062;2023-07-22T03:40:09;18.00;100.00
1760;DHT22;877;46.266;20.062;2023-07-22T03:42:49;18.00;100.00
1760;DHT22;877;46.266;20.062;2023-07-22T03:45:16;18.20;100.00
1760;DHT22;877;46.266;20.062;2023-07-22T03:47:44;18.30;100.00
1760;DHT22;877;46.266;20.062;2023-07-22T03:50:11;18.50;100.00
1760;DHT22;877;46.266;20.062;2023-07-22T03:52:37;18.60;100.00
1760;DHT22;877;46.266;20.062;2023-07-22T03:55:03;18.50;100.00
1760;DHT22;877;46.266;20.062;2023-07-22T03:57:31;18.60;100.00
1760;DHT22;877;46.266;20.062;2023-07-22T03:59:57;18.30;100.00
1760;DHT22;877;46.266;20.062;2023-07-22T04:02:24;18.30;100.00
1760;DHT22;877;46.266;20.062;2023-07-22T04:04:56;18.30;100.00
1760;DHT22;877;46.266;20.062;2023-07-22T04:07:22;18.30;100.00
1760;DHT22;877;46.266;20.062;2023-07-22T04:09:49;18.50;100.00
1760;DHT22;877;46.266;20.062;2023-07-22T04:12:15;18.50;100.00
1760;DHT22;877;46.266;20.062;2023-07-22T04:14:40;18.60;100.00
1760;DHT22;877;46.266;20.062;2023-07-22T04:17:06;18.70;100.00
1760;DHT22;877;46.266;20.062;2023-07-22T04:19:33;18.60;100.00
1760;DHT22;877;46.266;20.062;2023-07-22T04:21:58;18.60;100.00
1760;DHT22;877;46.266;20.062;2023-07-22T04:24:28;18.60;100.00
1760;DHT22;877;46.266;20.062;2023-07-22T04:26:56;18.70;100.00
1760;DHT22;877;46.266;20.062;2023-07-22T04:29:21;18.60;100.00
1760;DHT22;877;46.266;20.062;2023-07-22T04:31:47;18.70;100.00
1760;DHT22;877;46.266;20.062;2023-07-22T04:34:13;18.40;100.00
1760;DHT22;877;46.266;20.062;2023-07-22T04:36:39;18.40;100.00
1760;DHT22;877;46.266;20.062;2023-07-22T04:39:05;18.10;100.00
1760;DHT22;877;46.266;20.062;2023-07-22T04:41:32;18.60;100.00
1760;DHT22;877;46.266;20.062;2023-07-22T04:43:58;18.50;100.00
1760;DHT22;877;46.266;20.062;2023-07-22T04:46:27;18.70;100.00
1760;DHT22;877;46.266;20.062;2023-07-22T04:48:54;19.00;100.00
1760;DHT22;877;46.266;20.062;2023-07-22T04:51:20;19.00;100.00
1760;DHT22;877;46.266;20.062;2023-07-22T04:53:46;19.10;100.00
1760;DHT22;877;46.266;20.062;2023-07-22T04:56:12;19.20;100.00
1760;DHT22;877;46.266;20.062;2023-07-22T04:58:38;19.00;100.00
1760;DHT22;877;46.266;20.062;2023-07-22T05:01:04;19.00;100.00
1760;DHT22;877;46.266;20.062;2023-07-22T05:03:30;19.20;100.00
1760;DHT22;877;46.266;20.062;2023-07-22T05:05:56;19.40;100.00
1760;DHT22;877;46.266;20.062;2023-07-22T05:08:23;19.70;100.00
1760;DHT22;877;46.266;20.062;2023-07-22T05:10:49;19.90;100.00
1760;DHT22;877;46.266;20.062;2023-07-22T05:13:15;20.10;99.60
1760;DHT22;877;46.266;20.062;2023-07-22T05:15:42;20.00;100.00
1760;DHT22;877;46.266;20.062;2023-07-22T05:18:08;20.20;99.40
1760;DHT22;877;46.266;20.062;2023-07-22T05:20:33;20.30;98.90
1760;DHT22;877;46.266;20.062;2023-07-22T05:22:59;20.10;95.80
1760;DHT22;877;46.266;20.062;2023-07-22T05:25:25;19.80;99.10
1760;DHT22;877;46.266;20.062;2023-07-22T05:27:52;20.20;100.00
1760;DHT22;877;46.266;20.062;2023-07-22T05:30:18;20.40;96.50
1760;DHT22;877;46.266;20.062;2023-07-22T05:32:43;20.40;99.40
1760;DHT22;877;46.266;20.062;2023-07-22T05:35:09;20.20;97.30
1760;DHT22;877;46.266;20.062;2023-07-22T05:37:35;19.90;97.80
1760;DHT22;877;46.266;20.062;2023-07-22T05:40:01;20.00;100.00
1760;DHT22;877;46.266;20.062;2023-07-22T05:42:28;20.20;97.20
1760;DHT22;877;46.266;20.062;2023-07-22T05:44:54;20.10;98.30
1760;DHT22;877;46.266;20.062;2023-07-22T05:47:22;19.80;98.30
1760;DHT22;877;46.266;20.062;2023-07-22T05:49:47;20.10;98.80
1760;DHT22;877;46.266;20.062;2023-07-22T05:52:13;20.20;97.00
1760;DHT22;877;46.266;20.062;2023-07-22T05:54:39;20.30;96.40
1760;DHT22;877;46.266;20.062;2023-07-22T05:57:05;19.80;95.70
1760;DHT22;877;46.266;20.062;2023-07-22T05:59:32;19.80;98.60
1760;DHT22;877;46.266;20.062;2023-07-22T06:01:58;20.10;95.10
1760;DHT22;877;46.266;20.062;2023-07-22T06:04:24;20.60;95.60
1760;DHT22;877;46.266;20.062;2023-07-22T06:06:50;20.30;95.10
1760;DHT22;877;46.266;20.062;2023-07-22T06:09:16;20.50;95.80
1760;DHT22;877;46.266;20.062;2023-07-22T06:11:42;19.90;97.10
1760;DHT22;877;46.266;20.062;2023-07-22T06:14:07;20.10;97.70
1760;DHT22;877;46.266;20.062;2023-07-22T06:16:33;20.40;95.60
1760;DHT22;877;46.266;20.062;2023-07-22T06:18:59;20.40;95.40
1760;DHT22;877;46.266;20.062;2023-07-22T06:21:25;20.30;93.60
1760;DHT22;877;46.266;20.062;2023-07-22T06:23:51;20.30;92.10
1760;DHT22;877;46.266;20.062;2023-07-22T06:26:17;20.40;92.60
1760;DHT22;877;46.266;20.062;2023-07-22T06:28:42;20.40;94.30
1760;DHT22;877;46.266;20.062;2023-07-22T06:31:08;20.20;93.90
1760;DHT22;877;46.266;20.062;2023-07-22T06:33:34;20.50;93.90
1760;DHT22;877;46.266;20.062;2023-07-22T06:36:01;20.70;92.10
1760;DHT22;877;46.266;20.062;2023-07-22T06:38:26;21.10;91.50
1760;DHT22;877;46.266;20.062;2023-07-22T06:40:53;20.80;90.00
1760;DHT22;877;46.266;20.062;2023-07-22T06:43:20;21.20;87.70
1760;DHT22;877;46.266;20.062;2023-07-22T06:45:46;21.30;87.10
1760;DHT22;877;46.266;20.062;2023-07-22T06:48:12;21.30;89.00
1760;DHT22;877;46.266;20.062;2023-07-22T06:50:37;21.70;89.40
1760;DHT22;877;46.266;20.062;2023-07-22T06:53:03;21.50;86.60
1760;DHT22;877;46.266;20.062;2023-07-22T06:55:29;21.70;86.30
1760;DHT22;877;46.266;20.062;2023-07-22T06:57:58;21.80;85.90
1760;DHT22;877;46.266;20.062;2023-07-22T07:00:25;21.40;85.70
1760;DHT22;877;46.266;20.062;2023-07-22T07:02:51;21.30;85.40
1760;DHT22;877;46.266;20.062;2023-07-22T07:05:18;21.90;84.70
1760;DHT22;877;46.266;20.062;2023-07-22T07:07:43;21.80;84.70
1760;DHT22;877;46.266;20.062;2023-07-22T07:10:09;21.80;84.40
1760;DHT22;877;46.266;20.062;2023-07-22T07:12:36;22.00;84.20
1760;DHT22;877;46.266;20.062;2023-07-22T07:15:02;21.90;84.30
1760;DHT22;877;46.266;20.062;2023-07-22T07:17:29;22.20;83.80
1760;DHT22;877;46.266;20.062;2023-07-22T07:19:56;22.50;81.20
1760;DHT22;877;46.266;20.062;2023-07-22T07:22:21;22.00;82.60
1760;DHT22;877;46.266;20.062;2023-07-22T07:24:47;22.60;82.70
1760;DHT22;877;46.266;20.062;2023-07-22T07:27:13;22.30;80.30
1760;DHT22;877;46.266;20.062;2023-07-22T07:29:39;22.70;79.90
1760;DHT22;877;46.266;20.062;2023-07-22T07:32:05;22.20;79.60
1760;DHT22;877;46.266;20.062;2023-07-22T07:34:31;22.30;81.00
1760;DHT22;877;46.266;20.062;2023-07-22T07:36:56;23.10;77.50
1760;DHT22;877;46.266;20.062;2023-07-22T07:39:22;23.60;77.50
1760;DHT22;877;46.266;20.062;2023-07-22T07:41:48;23.60;75.10
1760;DHT22;877;46.266;20.062;2023-07-22T07:44:14;23.10;78.70
1760;DHT22;877;46.266;20.062;2023-07-22T07:46:39;22.70;79.00
1760;DHT22;877;46.266;20.062;2023-07-22T07:49:05;23.80;75.40
1760;DHT22;877;46.266;20.062;2023-07-22T07:51:31;24.70;74.40
1760;DHT22;877;46.266;20.062;2023-07-22T07:53:58;25.00;70.60
1760;DHT22;877;46.266;20.062;2023-07-22T07:56:25;23.90;75.50
1760;DHT22;877;46.266;20.062;2023-07-22T07:58:52;24.70;70.40
1760;DHT22;877;46.266;20.062;2023-07-22T08:01:18;25.40;69.20
1760;DHT22;877;46.266;20.062;2023-07-22T08:03:45;25.70;68.00
1760;DHT22;877;46.266;20.062;2023-07-22T08:06:12;25.10;70.70
1760;DHT22;877;46.266;20.062;2023-07-22T08:08:38;24.20;71.90
1760;DHT22;877;46.266;20.062;2023-07-22T08:11:08;24.20;70.80
1760;DHT22;877;46.266;20.062;2023-07-22T08:13:35;24.10;71.90
1760;DHT22;877;46.266;20.062;2023-07-22T08:16:05;24.70;72.40
1760;DHT22;877;46.266;20.062;2023-07-22T08:18:32;24.60;69.80
1760;DHT22;877;46.266;20.062;2023-07-22T08:20:59;25.60;67.50
1760;DHT22;877;46.266;20.062;2023-07-22T08:23:25;25.80;65.20
1760;DHT22;877;46.266;20.062;2023-07-22T08:25:52;25.60;66.40
1760;DHT22;877;46.266;20.062;2023-07-22T08:28:18;25.20;70.40
1760;DHT22;877;46.266;20.062;2023-07-22T08:30:43;25.30;67.00
1760;DHT22;877;46.266;20.062;2023-07-22T08:33:10;26.50;62.30
1760;DHT22;877;46.266;20.062;2023-07-22T08:35:41;26.60;63.30
1760;DHT22;877;46.266;20.062;2023-07-22T08:38:08;26.20;65.00
1760;DHT22;877;46.266;20.062;2023-07-22T08:40:39;27.90;59.70
1760;DHT22;877;46.266;20.062;2023-07-22T08:43:09;27.40;61.50
1760;DHT22;877;46.266;20.062;2023-07-22T08:45:36;26.60;63.00
1760;DHT22;877;46.266;20.062;2023-07-22T08:53:46;24.90;67.70
1760;DHT22;877;46.266;20.062;2023-07-22T08:56:13;24.80;67.20
1760;DHT22;877;46.266;20.062;2023-07-22T08:58:41;25.90;67.00
1760;DHT22;877;46.266;20.062;2023-07-22T09:01:08;25.60;65.90
1760;DHT22;877;46.266;20.062;2023-07-22T09:03:34;25.60;63.50
1760;DHT22;877;46.266;20.062;2023-07-22T09:06:00;27.00;61.20
1760;DHT22;877;46.266;20.062;2023-07-22T09:08:27;27.00;60.20
1760;DHT22;877;46.266;20.062;2023-07-22T09:10:53;25.20;63.50
1760;DHT22;877;46.266;20.062;2023-07-22T09:13:20;25.10;65.20
1760;DHT22;877;46.266;20.062;2023-07-22T09:15:47;26.10;63.10
1760;DHT22;877;46.266;20.062;2023-07-22T09:18:15;26.90;60.50
1760;DHT22;877;46.266;20.062;2023-07-22T09:20:41;27.00;60.90
1760;DHT22;877;46.266;20.062;2023-07-22T09:23:08;26.30;61.70
1760;DHT22;877;46.266;20.062;2023-07-22T09:25:33;27.50;59.70
1760;DHT22;877;46.266;20.062;2023-07-22T09:28:00;27.90;57.70
1760;DHT22;877;46.266;20.062;2023-07-22T09:30:28;27.40;59.90
1760;DHT22;877;46.266;20.062;2023-07-22T09:32:56;26.60;62.30
1760;DHT22;877;46.266;20.062;2023-07-22T09:35:24;27.70;59.40
1760;DHT22;877;46.266;20.062;2023-07-22T09:37:50;27.30;60.70
1760;DHT22;877;46.266;20.062;2023-07-22T09:40:26;28.60;58.10
1760;DHT22;877;46.266;20.062;2023-07-22T09:42:54;27.10;60.30
1760;DHT22;877;46.266;20.062;2023-07-22T09:45:25;27.20;59.10
1760;DHT22;877;46.266;20.062;2023-07-22T09:47:53;26.70;60.70
1760;DHT22;877;46.266;20.062;2023-07-22T09:50:23;28.00;57.60
1760;DHT22;877;46.266;20.062;2023-07-22T09:52:59;29.20;55.40
1760;DHT22;877;46.266;20.062;2023-07-22T09:55:31;26.80;59.70
1760;DHT22;877;46.266;20.062;2023-07-22T09:58:02;27.80;59.00
1760;DHT22;877;46.266;20.062;2023-07-22T10:00:31;29.10;53.90
1760;DHT22;877;46.266;20.062;2023-07-22T10:02:58;28.80;53.90
1760;DHT22;877;46.266;20.062;2023-07-22T10:05:26;27.60;56.40
1760;DHT22;877;46.266;20.062;2023-07-22T10:07:54;27.30;57.90
1760;DHT22;877;46.266;20.062;2023-07-22T10:13:00;27.50;57.40
1760;DHT22;877;46.266;20.062;2023-07-22T10:15:30;29.20;54.40
1760;DHT22;877;46.266;20.062;2023-07-22T10:17:56;29.00;52.10
1760;DHT22;877;46.266;20.062;2023-07-22T10:20:24;28.80;54.40
1760;DHT22;877;46.266;20.062;2023-07-22T10:22:50;30.00;51.80
1760;DHT22;877;46.266;20.062;2023-07-22T10:25:18;29.80;50.70
1760;DHT22;877;46.266;20.062;2023-07-22T10:27:44;29.60;49.50
1760;DHT22;877;46.266;20.062;2023-07-22T10:30:11;30.60;47.60
1760;DHT22;877;46.266;20.062;2023-07-22T10:32:42;30.20;48.40
1760;DHT22;877;46.266;20.062;2023-07-22T10:35:10;31.10;48.00
1760;DHT22;877;46.266;20.062;2023-07-22T10:37:38;30.00;50.10
1760;DHT22;877;46.266;20.062;2023-07-22T10:45:30;28.30;51.10
1760;DHT22;877;46.266;20.062;2023-07-22T10:48:07;28.60;49.90
1760;DHT22;877;46.266;20.062;2023-07-22T10:50:45;28.30;52.40
1760;DHT22;877;46.266;20.062;2023-07-22T10:53:40;29.00;51.50
1760;DHT22;877;46.266;20.062;2023-07-22T10:56:18;29.20;49.70
1760;DHT22;877;46.266;20.062;2023-07-22T11:12:13;32.10;43.60
1760;DHT22;877;46.266;20.062;2023-07-22T11:14:50;29.90;48.20
1760;DHT22;877;46.266;20.062;2023-07-22T11:17:17;30.50;46.70
1760;DHT22;877;46.266;20.062;2023-07-22T11:19:43;31.00;47.60
1760;DHT22;877;46.266;20.062;2023-07-22T11:22:11;31.60;47.30
1760;DHT22;877;46.266;20.062;2023-07-22T11:24:37;30.30;48.60
1760;DHT22;877;46.266;20.062;2023-07-22T11:27:05;31.80;46.30
1760;DHT22;877;46.266;20.062;2023-07-22T11:29:32;32.40;45.60
1760;DHT22;877;46.266;20.062;2023-07-22T11:31:58;32.60;45.20
1760;DHT22;877;46.266;20.062;2023-07-22T11:34:25;31.30;44.20
1760;DHT22;877;46.266;20.062;2023-07-22T11:36:52;29.40;48.60
1760;DHT22;877;46.266;20.062;2023-07-22T11:39:21;29.30;50.00
1760;DHT22;877;46.266;20.062;2023-07-22T11:41:48;29.90;49.30
1760;DHT22;877;46.266;20.062;2023-07-22T11:44:15;30.80;47.60
1760;DHT22;877;46.266;20.062;2023-07-22T11:52:05;30.60;43.80
1760;DHT22;877;46.266;20.062;2023-07-22T11:54:35;30.40;45.90
1760;DHT22;877;46.266;20.062;2023-07-22T11:57:13;30.30;48.80
1760;DHT22;877;46.266;20.062;2023-07-22T11:59:52;29.50;47.70
1760;DHT22;877;46.266;20.062;2023-07-22T12:02:20;29.30;48.70
1760;DHT22;877;46.266;20.062;2023-07-22T12:04:59;29.70;48.30
1760;DHT22;877;46.266;20.062;2023-07-22T12:07:30;29.80;47.30
1760;DHT22;877;46.266;20.062;2023-07-22T12:10:00;30.30;46.90
1760;DHT22;877;46.266;20.062;2023-07-22T12:12:37;30.50;45.80
1760;DHT22;877;46.266;20.062;2023-07-22T12:15:14;30.90;45.00
1760;DHT22;877;46.266;20.062;2023-07-22T12:17:53;29.30;45.70
1760;DHT22;877;46.266;20.062;2023-07-22T12:20:22;29.10;47.00
1760;DHT22;877;46.266;20.062;2023-07-22T12:22:48;28.90;47.80
1760;DHT22;877;46.266;20.062;2023-07-22T12:25:14;29.70;47.50
1760;DHT22;877;46.266;20.062;2023-07-22T12:27:40;29.50;48.10
1760;DHT22;877;46.266;20.062;2023-07-22T12:30:06;29.50;47.50
1760;DHT22;877;46.266;20.062;2023-07-22T12:32:33;30.10;45.10
1760;DHT22;877;46.266;20.062;2023-07-22T12:34:58;30.00;46.70
1760;DHT22;877;46.266;20.062;2023-07-22T12:37:24;30.30;46.20
1760;DHT22;877;46.266;20.062;2023-07-22T12:39:51;31.00;45.20
1760;DHT22;877;46.266;20.062;2023-07-22T12:42:17;30.40;46.10
1760;DHT22;877;46.266;20.062;2023-07-22T12:44:43;29.90;45.90
1760;DHT22;877;46.266;20.062;2023-07-22T12:47:08;29.80;47.30
1760;DHT22;877;46.266;20.062;2023-07-22T12:49:34;28.90;48.40
1760;DHT22;877;46.266;20.062;2023-07-22T12:52:00;29.90;46.90
1760;DHT22;877;46.266;20.062;2023-07-22T12:54:30;30.00;47.60
1760;DHT22;877;46.266;20.062;2023-07-22T12:56:56;29.90;46.80
1760;DHT22;877;46.266;20.062;2023-07-22T12:59:22;30.10;46.00
1760;DHT22;877;46.266;20.062;2023-07-22T13:01:48;31.40;45.40
1760;DHT22;877;46.266;20.062;2023-07-22T13:04:14;31.70;43.90
1760;DHT22;877;46.266;20.062;2023-07-22T13:06:40;32.30;44.90
1760;DHT22;877;46.266;20.062;2023-07-22T13:09:06;31.60;42.20
1760;DHT22;877;46.266;20.062;2023-07-22T13:11:32;29.70;45.00
1760;DHT22;877;46.266;20.062;2023-07-22T13:13:57;30.40;46.00
1760;DHT22;877;46.266;20.062;2023-07-22T13:16:23;30.90;43.40
1760;DHT22;877;46.266;20.062;2023-07-22T13:18:49;30.60;45.70
1760;DHT22;877;46.266;20.062;2023-07-22T13:21:15;31.30;43.50
1760;DHT22;877;46.266;20.062;2023-07-22T13:23:40;29.30;45.50
1760;DHT22;877;46.266;20.062;2023-07-22T13:26:06;30.60;44.20
1760;DHT22;877;46.266;20.062;2023-07-22T13:28:32;31.60;43.40
1760;DHT22;877;46.266;20.062;2023-07-22T13:30:58;32.30;41.00
1760;DHT22;877;46.266;20.062;2023-07-22T13:33:23;32.30;40.40
1760;DHT22;877;46.266;20.062;2023-07-22T13:35:49;31.70;40.60
1760;DHT22;877;46.266;20.062;2023-07-22T13:38:16;30.60;42.40
1760;DHT22;877;46.266;20.062;2023-07-22T13:40:42;31.10;41.10
1760;DHT22;877;46.266;20.062;2023-07-22T13:43:08;32.40;41.10
1760;DHT22;877;46.266;20.062;2023-07-22T13:45:35;31.70;40.10
1760;DHT22;877;46.266;20.062;2023-07-22T13:48:00;31.50;41.50
1760;DHT22;877;46.266;20.062;2023-07-22T13:50:26;31.50;41.10
1760;DHT22;877;46.266;20.062;2023-07-22T13:52:52;30.30;43.50
1760;DHT22;877;46.266;20.062;2023-07-22T13:55:18;30.20;44.00
1760;DHT22;877;46.266;20.062;2023-07-22T13:57:44;30.20;44.20
1760;DHT22;877;46.266;20.062;2023-07-22T14:00:10;30.60;43.40
1760;DHT22;877;46.266;20.062;2023-07-22T14:02:37;31.30;41.80
1760;DHT22;877;46.266;20.062;2023-07-22T14:05:03;30.40;42.10
1760;DHT22;877;46.266;20.062;2023-07-22T14:07:29;30.90;42.90
1760;DHT22;877;46.266;20.062;2023-07-22T14:09:55;31.20;41.40
1760;DHT22;877;46.266;20.062;2023-07-22T14:12:21;32.70;40.70
1760;DHT22;877;46.266;20.062;2023-07-22T14:14:47;33.90;40.20
1760;DHT22;877;46.266;20.062;2023-07-22T14:17:13;32.90;39.60
1760;DHT22;877;46.266;20.062;2023-07-22T14:19:38;30.80;41.30
1760;DHT22;877;46.266;20.062;2023-07-22T14:22:04;30.00;42.90
1760;DHT22;877;46.266;20.062;2023-07-22T14:24:31;29.40;44.00
1760;DHT22;877;46.266;20.062;2023-07-22T14:26:57;29.90;43.20
1760;DHT22;877;46.266;20.062;2023-07-22T14:29:23;31.10;40.70
1760;DHT22;877;46.266;20.062;2023-07-22T14:31:51;32.30;38.10
1760;DHT22;877;46.266;20.062;2023-07-22T14:34:17;32.70;38.30
1760;DHT22;877;46.266;20.062;2023-07-22T14:36:43;33.20;37.90
1760;DHT22;877;46.266;20.062;2023-07-22T14:39:09;32.90;38.00
1760;DHT22;877;46.266;20.062;2023-07-22T14:41:35;32.40;37.60
1760;DHT22;877;46.266;20.062;2023-07-22T14:44:01;32.70;37.70
1760;DHT22;877;46.266;20.062;2023-07-22T14:46:26;32.40;37.30
1760;DHT22;877;46.266;20.062;2023-07-22T14:48:52;32.00;40.00
1760;DHT22;877;46.266;20.062;2023-07-22T14:51:18;33.90;37.50
1760;DHT22;877;46.266;20.062;2023-07-22T14:53:44;35.40;36.80
1760;DHT22;877;46.266;20.062;2023-07-22T14:56:10;35.00;34.00
1760;DHT22;877;46.266;20.062;2023-07-22T14:58:36;34.60;35.50
1760;DHT22;877;46.266;20.062;2023-07-22T15:01:01;36.10;34.90
1760;DHT22;877;46.266;20.062;2023-07-22T15:03:27;36.80;33.30
1760;DHT22;877;46.266;20.062;2023-07-22T15:05:53;36.90;33.50
1760;DHT22;877;46.266;20.062;2023-07-22T15:08:19;37.60;32.30
1760;DHT22;877;46.266;20.062;2023-07-22T15:10:46;37.40;31.90
1760;DHT22;877;46.266;20.062;2023-07-22T15:13:12;36.30;33.70
1760;DHT22;877;46.266;20.062;2023-07-22T15:15:38;34.60;34.30
1760;DHT22;877;46.266;20.062;2023-07-22T15:18:04;33.60;34.10
1760;DHT22;877;46.266;20.062;2023-07-22T15:20:31;33.50;33.40
1760;DHT22;877;46.266;20.062;2023-07-22T15:22:57;32.90;36.20
1760;DHT22;877;46.266;20.062;2023-07-22T15:25:22;32.90;36.00
1760;DHT22;877;46.266;20.062;2023-07-22T15:27:48;33.40;35.50
1760;DHT22;877;46.266;20.062;2023-07-22T15:30:14;33.80;33.90
1760;DHT22;877;46.266;20.062;2023-07-22T15:32:40;32.70;36.00
1760;DHT22;877;46.266;20.062;2023-07-22T15:35:06;31.40;37.50
1760;DHT22;877;46.266;20.062;2023-07-22T15:37:32;32.00;37.20
1760;DHT22;877;46.266;20.062;2023-07-22T15:39:58;32.30;36.70
1760;DHT22;877;46.266;20.062;2023-07-22T15:42:23;32.80;35.00
1760;DHT22;877;46.266;20.062;2023-07-22T15:44:49;32.20;37.10
1760;DHT22;877;46.266;20.062;2023-07-22T15:47:15;33.10;36.70
1760;DHT22;877;46.266;20.062;2023-07-22T15:49:41;32.30;35.20
1760;DHT22;877;46.266;20.062;2023-07-22T15:52:07;32.10;36.30
1760;DHT22;877;46.266;20.062;2023-07-22T15:54:33;33.00;35.00
1760;DHT22;877;46.266;20.062;2023-07-22T15:56:58;33.00;34.30
1760;DHT22;877;46.266;20.062;2023-07-22T15:59:24;32.40;34.70
1760;DHT22;877;46.266;20.062;2023-07-22T16:01:50;32.40;35.30
1760;DHT22;877;46.266;20.062;2023-07-22T16:04:16;32.30;36.20
1760;DHT22;877;46.266;20.062;2023-07-22T16:06:42;32.90;36.10
1760;DHT22;877;46.266;20.062;2023-07-22T16:09:08;31.00;38.50
1760;DHT22;877;46.266;20.062;2023-07-22T16:11:33;30.50;39.30
1760;DHT22;877;46.266;20.062;2023-07-22T16:14:00;31.40;38.40
1760;DHT22;877;46.266;20.062;2023-07-22T16:16:25;31.30;39.30
1760;DHT22;877;46.266;20.062;2023-07-22T16:18:51;31.50;37.50
1760;DHT22;877;46.266;20.062;2023-07-22T16:21:19;31.80;38.80
1760;DHT22;877;46.266;20.062;2023-07-22T16:23:45;31.90;37.30
1760;DHT22;877;46.266;20.062;2023-07-22T16:26:10;31.20;38.20